This is the latest recevied weather packets stored in our database for station/object CW2401. If no packets are shown the sender has not sent any weather packets the latest 10 day(s).
| Time | Temp. | Humidity | Pressure | Rain* | Wind** | Luminosity | Snow |
|---|---|---|---|---|---|---|---|
| 1777831383 | 16.11° C | 41% | 1019.3 hPa | 0 mm | - | - | - |
| 1777831021 | 16.11° C | 39% | 1019.3 hPa | 0 mm | - | - | - |
| 1777830900 | 16.11° C | 40% | 1019.3 hPa | 0 mm | - | - | - |
| 1777830538 | 16.11° C | 40% | 1019.3 hPa | 0 mm | - | - | - |
| 1777830056 | 15.56° C | 41% | 1019.5 hPa | 0 mm | - | - | - |
| 1777827522 | 15° C | 43% | 1020.1 hPa | 0 mm | - | - | - |
| 1777825841 | 14.44° C | 42% | 1020.4 hPa | 0 mm | - | - | - |
| 1777825476 | 14.44° C | 43% | 1020.6 hPa | 0 mm | - | - | - |
| 1777823671 | 13.89° C | 42% | 1020.8 hPa | 0 mm | - | - | - |
| 1777822591 | 14.44° C | 42% | 1021 hPa | 0 mm | - | - | - |
| 1777821746 | 13.89° C | 46% | 1021 hPa | 0 mm | - | - | - |
| 1777820414 | 13.89° C | 45% | 1020.9 hPa | 0 mm | - | - | - |
| 1777819810 | 14.44° C | 45% | 1020.9 hPa | 0 mm | - | - | - |
| 1777818126 | 14.44° C | 46% | 1020.8 hPa | 0 mm | - | - | - |
| 1777817886 | 14.44° C | 47% | 1020.8 hPa | 0 mm | - | - | - |
| 1777817282 | 14.44° C | 49% | 1020.7 hPa | 0 mm | - | - | - |
| 1777815718 | 13.33° C | 54% | 1020.6 hPa | 0 mm | - | - | - |
| 1777815599 | 13.33° C | 53% | 1020.6 hPa | 0 mm | - | - | - |
| 1777813797 | 10° C | 67% | 1020.6 hPa | 0 mm | - | - | - |
| 1777813674 | 10° C | 67% | 1020.6 hPa | 0 mm | - | - | - |
| 1777811867 | 7.22° C | 82% | 1020.5 hPa | 0 mm | - | - | - |
| 1777811749 | 7.22° C | 83% | 1020.5 hPa | 0 mm | - | - | - |
| 1777811142 | 6.11° C | 89% | 1020.4 hPa | 0 mm | - | - | - |
| 1777811021 | 6.11° C | 90% | 1020.4 hPa | 0 mm | - | - | - |
| 1777810901 | 6.11° C | 90% | 1020.4 hPa | 0 mm | - | - | - |
* Rain latest hour (hover to see other rain measurements)
** Current wind speed in m/s (hover to see current wind gust speed)